createdAt,value
2023-03-12T00:00:08.985Z,1367.8280
2023-03-12T00:00:20.072Z,1367.8280
2023-03-12T00:00:31.134Z,1359.4700
2023-03-12T00:00:42.204Z,1373.4570
2023-03-12T00:00:53.301Z,1367.8280
2023-03-12T00:01:04.343Z,1359.4700
2023-03-12T00:01:15.409Z,1365.0310
2023-03-12T00:01:29.939Z,1373.4570
2023-03-12T00:01:41.714Z,1356.7070
2023-03-12T00:01:52.784Z,1359.4700
2023-03-12T00:02:03.866Z,1370.6370
2023-03-12T00:02:14.969Z,1370.6370
2023-03-12T00:02:26.052Z,1360.8560
2023-03-12T00:02:37.147Z,1370.6370
2023-03-12T00:02:48.206Z,1370.6370
2023-03-12T00:02:59.313Z,1369.2310
2023-03-12T00:03:10.402Z,1366.4280
2023-03-12T00:03:21.517Z,1373.4570
2023-03-12T00:03:32.579Z,1367.8280
2023-03-12T00:03:43.788Z,1360.8560
2023-03-12T00:03:54.863Z,1370.6370
2023-03-12T00:04:06.072Z,1363.6360
2023-03-12T00:04:17.203Z,1367.8280
2023-03-12T00:04:28.255Z,1359.4700
2023-03-12T00:04:39.301Z,1367.8280
2023-03-12T00:04:50.348Z,1376.2889
2023-03-12T00:05:01.428Z,1373.4570
2023-03-12T00:05:12.478Z,1365.0310
2023-03-12T00:05:23.554Z,1362.2450
2023-03-12T00:05:34.608Z,1373.4570
2023-03-12T00:05:45.667Z,1369.2310
2023-03-12T00:05:56.732Z,1362.2450
2023-03-12T00:06:10.780Z,1359.4700
2023-03-12T00:06:22.316Z,1356.7070
2023-03-12T00:06:33.378Z,1362.2450
2023-03-12T00:06:44.435Z,1363.6360
2023-03-12T00:06:55.514Z,1363.6360
2023-03-12T00:07:06.738Z,1353.9550
2023-03-12T00:07:17.749Z,1370.6370
2023-03-12T00:07:28.830Z,1359.4700
2023-03-12T00:07:39.899Z,1367.8280
2023-03-12T00:07:50.968Z,1358.0870
2023-03-12T00:08:02.034Z,1356.7070
2023-03-12T00:08:13.106Z,1367.8280
2023-03-12T00:08:24.178Z,1359.4700
2023-03-12T00:08:35.275Z,1367.8280
2023-03-12T00:08:46.394Z,1359.4700
2023-03-12T00:08:57.421Z,1359.4700
2023-03-12T00:09:08.461Z,1359.4700
2023-03-12T00:09:19.518Z,1376.2889
2023-03-12T00:09:30.591Z,1363.6360
2023-03-12T00:09:41.665Z,1370.6370
2023-03-12T00:09:52.698Z,1362.2450
2023-03-12T00:10:03.746Z,1372.0450
2023-03-12T00:10:14.814Z,1363.6360
2023-03-12T00:10:25.901Z,1362.2450
2023-03-12T00:10:36.987Z,1369.2310
2023-03-12T00:10:48.030Z,1363.6360
2023-03-12T00:10:59.085Z,1365.0310
2023-03-12T00:11:10.152Z,1363.6360
2023-03-12T00:11:21.216Z,1373.4570
2023-03-12T00:11:32.284Z,1359.4700
2023-03-12T00:11:43.318Z,1360.8560
2023-03-12T00:11:54.366Z,1356.7070
2023-03-12T00:12:05.440Z,1358.0870
2023-03-12T00:12:16.537Z,1359.4700
2023-03-12T00:12:27.579Z,1370.6370
2023-03-12T00:12:38.636Z,1356.7070
2023-03-12T00:12:49.694Z,1367.8280
2023-03-12T00:13:00.803Z,1365.0310
2023-03-12T00:13:11.818Z,1359.4700
2023-03-12T00:13:22.885Z,1366.4280
2023-03-12T00:13:33.945Z,1370.6370
2023-03-12T00:13:45.030Z,1359.4700
2023-03-12T00:13:56.094Z,1367.8280
2023-03-12T00:14:07.128Z,1372.0450
2023-03-12T00:14:18.193Z,1369.2310
2023-03-12T00:14:29.261Z,1376.2889
2023-03-12T00:14:40.337Z,1360.8560
2023-03-12T00:14:51.375Z,1359.4700
2023-03-12T00:15:02.447Z,1370.6370
2023-03-12T00:15:13.500Z,1360.8560
2023-03-12T00:15:24.566Z,1366.4280
2023-03-12T00:15:35.657Z,1367.8280
2023-03-12T00:15:46.737Z,1358.0870
2023-03-12T00:15:57.832Z,1359.4700
2023-03-12T00:16:08.916Z,1362.2450
2023-03-12T00:16:20.047Z,1365.0310
2023-03-12T00:16:31.072Z,1355.3300
2023-03-12T00:16:42.124Z,1360.8560
2023-03-12T00:16:53.189Z,1374.8710
2023-03-12T00:17:04.249Z,1356.7070
2023-03-12T00:17:15.302Z,1370.6370
2023-03-12T00:17:26.415Z,1367.8280
2023-03-12T00:17:37.476Z,1358.0870
2023-03-12T00:17:48.517Z,1366.4280
2023-03-12T00:17:59.585Z,1362.2450
2023-03-12T00:18:10.646Z,1370.6370
2023-03-12T00:18:21.694Z,1376.2889
2023-03-12T00:18:32.789Z,1376.2889
2023-03-12T00:18:43.804Z,1362.2450
2023-03-12T00:18:54.879Z,1359.4700
2023-03-12T00:19:05.950Z,1366.4280
2023-03-12T00:19:17.036Z,1365.0310
2023-03-12T00:19:28.138Z,1358.0870
2023-03-12T00:19:39.159Z,1358.0870
2023-03-12T00:19:50.224Z,1360.8560
2023-03-12T00:20:01.286Z,1360.8560
2023-03-12T00:20:12.363Z,1359.4700
2023-03-12T00:20:23.420Z,1366.4280
2023-03-12T00:20:34.476Z,1356.7070
2023-03-12T00:20:45.548Z,1359.4700
2023-03-12T00:20:56.636Z,1359.4700
2023-03-12T00:21:07.697Z,1365.0310
2023-03-12T00:21:18.758Z,1369.2310
2023-03-12T00:21:29.838Z,1359.4700
2023-03-12T00:21:40.885Z,1355.3300
2023-03-12T00:21:51.935Z,1365.0310
2023-03-12T00:22:02.993Z,1356.7070
2023-03-12T00:22:14.045Z,1367.8280
2023-03-12T00:22:25.180Z,1356.7070
2023-03-12T00:22:36.267Z,1370.6370
2023-03-12T00:22:47.334Z,1363.6360
2023-03-12T00:22:58.404Z,1366.4280
2023-03-12T00:23:09.452Z,1363.6360
2023-03-12T00:23:20.500Z,1356.7070
2023-03-12T00:23:31.570Z,1362.2450
2023-03-12T00:23:42.637Z,1355.3300
2023-03-12T00:23:53.704Z,1366.4280
2023-03-12T00:24:04.770Z,1353.9550
2023-03-12T00:24:15.827Z,1365.0310
2023-03-12T00:24:26.896Z,1359.4700
2023-03-12T00:24:37.966Z,1359.4700
2023-03-12T00:24:49.032Z,1358.0870
2023-03-12T00:25:00.127Z,1356.7070
2023-03-12T00:25:11.150Z,1352.5840
2023-03-12T00:25:22.220Z,1367.8280
2023-03-12T00:25:33.302Z,1358.0870
2023-03-12T00:25:46.773Z,1370.6370
2023-03-12T00:25:57.989Z,1358.0870
2023-03-12T00:26:09.037Z,1358.0870
2023-03-12T00:26:20.089Z,1359.4700
2023-03-12T00:26:31.157Z,1373.4570
2023-03-12T00:26:42.193Z,1363.6360
2023-03-12T00:26:53.245Z,1363.6360
2023-03-12T00:27:04.310Z,1362.2450
2023-03-12T00:27:15.387Z,1362.2450
2023-03-12T00:27:26.421Z,1365.0310
2023-03-12T00:27:37.535Z,1367.8280
2023-03-12T00:27:48.586Z,1359.4700
2023-03-12T00:27:59.662Z,1356.7070
2023-03-12T00:28:10.739Z,1353.9550
2023-03-12T00:28:21.786Z,1367.8280
2023-03-12T00:28:32.827Z,1359.4700
2023-03-12T00:28:43.883Z,1358.0870
2023-03-12T00:28:54.970Z,1351.2150
2023-03-12T00:29:06.014Z,1370.6370
2023-03-12T00:29:17.067Z,1370.6370
2023-03-12T00:29:28.114Z,1359.4700
2023-03-12T00:29:39.152Z,1358.0870
2023-03-12T00:29:50.238Z,1367.8280
2023-03-12T00:30:01.282Z,1367.8280
2023-03-12T00:30:12.364Z,1353.9550
2023-03-12T00:30:23.429Z,1365.0310
2023-03-12T00:30:34.502Z,1366.4280
2023-03-12T00:30:45.556Z,1359.4700
2023-03-12T00:30:57.290Z,1360.8560
2023-03-12T00:31:08.446Z,1367.8280
2023-03-12T00:31:19.500Z,1363.6360
2023-03-12T00:31:30.623Z,1365.0310
2023-03-12T00:31:41.805Z,1355.3300
2023-03-12T00:31:53.018Z,1365.0310
2023-03-12T00:32:04.084Z,1365.0310
2023-03-12T00:32:15.207Z,1359.4700
2023-03-12T00:32:26.288Z,1355.3300
2023-03-12T00:32:37.406Z,1356.7070
2023-03-12T00:32:48.585Z,1366.4280
2023-03-12T00:32:59.732Z,1372.0450
2023-03-12T00:33:10.815Z,1367.8280
2023-03-12T00:33:21.886Z,1363.6360
2023-03-12T00:33:32.938Z,1367.8280
2023-03-12T00:33:44.007Z,1355.3300
2023-03-12T00:33:55.080Z,1356.7070
2023-03-12T00:34:06.165Z,1356.7070
2023-03-12T00:34:17.207Z,1360.8560
2023-03-12T00:34:28.286Z,1365.0310
2023-03-12T00:34:39.381Z,1359.4700
2023-03-12T00:34:50.440Z,1373.4570
2023-03-12T00:35:01.495Z,1366.4280
2023-03-12T00:35:12.570Z,1359.4700
2023-03-12T00:35:23.629Z,1359.4700
2023-03-12T00:35:34.749Z,1367.8280
2023-03-12T00:35:45.809Z,1367.8280
2023-03-12T00:35:56.913Z,1362.2450
2023-03-12T00:36:07.934Z,1360.8560
2023-03-12T00:36:19.030Z,1369.2310
2023-03-12T00:36:30.086Z,1374.8710
2023-03-12T00:36:41.124Z,1372.0450
2023-03-12T00:36:52.190Z,1370.6370
2023-03-12T00:37:03.233Z,1365.0310
2023-03-12T00:37:14.319Z,1359.4700
2023-03-12T00:37:25.382Z,1356.7070
2023-03-12T00:37:36.438Z,1362.2450
2023-03-12T00:37:47.505Z,1366.4280
2023-03-12T00:37:58.609Z,1358.0870
2023-03-12T00:38:09.673Z,1356.7070
2023-03-12T00:38:20.733Z,1358.0870
2023-03-12T00:38:31.799Z,1367.8280
2023-03-12T00:38:42.881Z,1355.3300
2023-03-12T00:38:53.957Z,1369.2310
2023-03-12T00:39:05.003Z,1363.6360
2023-03-12T00:39:16.075Z,1356.7070
2023-03-12T00:39:27.153Z,1369.2310
2023-03-12T00:39:38.211Z,1353.9550
2023-03-12T00:39:49.293Z,1365.0310
2023-03-12T00:40:00.340Z,1355.3300
2023-03-12T00:40:11.431Z,1365.0310
2023-03-12T00:40:22.472Z,1353.9550
2023-03-12T00:40:33.530Z,1355.3300
2023-03-12T00:40:44.591Z,1365.0310
2023-03-12T00:40:55.644Z,1365.0310
2023-03-12T00:41:06.711Z,1369.2310
2023-03-12T00:41:17.753Z,1365.0310
2023-03-12T00:41:28.856Z,1355.3300
2023-03-12T00:41:39.892Z,1360.8560
2023-03-12T00:41:50.964Z,1373.4570
2023-03-12T00:42:02.024Z,1359.4700
2023-03-12T00:42:13.106Z,1374.8710
2023-03-12T00:42:24.167Z,1367.8280
2023-03-12T00:42:35.221Z,1365.0310
2023-03-12T00:42:46.301Z,1359.4700
2023-03-12T00:42:57.358Z,1356.7070
2023-03-12T00:43:08.457Z,1366.4280
2023-03-12T00:43:19.520Z,1356.7070
2023-03-12T00:43:30.596Z,1356.7070
2023-03-12T00:43:41.634Z,1370.6370
2023-03-12T00:43:52.698Z,1362.2450
2023-03-12T00:44:03.729Z,1362.2450
2023-03-12T00:44:14.773Z,1369.2310
2023-03-12T00:44:25.872Z,1365.0310
2023-03-12T00:44:36.931Z,1365.0310
2023-03-12T00:44:48.007Z,1358.0870
2023-03-12T00:44:59.037Z,1365.0310
2023-03-12T00:45:10.080Z,1366.4280
2023-03-12T00:45:21.166Z,1356.7070
2023-03-12T00:45:32.214Z,1366.4280
2023-03-12T00:45:43.273Z,1372.0450
2023-03-12T00:45:54.322Z,1367.8280
2023-03-12T00:46:05.352Z,1358.0870
2023-03-12T00:46:16.484Z,1367.8280
2023-03-12T00:46:27.583Z,1355.3300
2023-03-12T00:46:38.641Z,1360.8560
2023-03-12T00:46:49.718Z,1356.7070
2023-03-12T00:47:00.863Z,1373.4570
2023-03-12T00:47:11.969Z,1359.4700
2023-03-12T00:47:23.032Z,1372.0450
2023-03-12T00:47:34.093Z,1370.6370
2023-03-12T00:47:45.184Z,1370.6370
2023-03-12T00:47:56.257Z,1366.4280
2023-03-12T00:48:07.316Z,1365.0310
2023-03-12T00:48:18.425Z,1366.4280
2023-03-12T00:48:29.489Z,1373.4570
2023-03-12T00:48:40.543Z,1373.4570
2023-03-12T00:48:51.610Z,1359.4700
2023-03-12T00:49:02.757Z,1367.8280
2023-03-12T00:49:13.798Z,1356.7070
2023-03-12T00:49:24.876Z,1359.4700
2023-03-12T00:49:35.999Z,1366.4280
2023-03-12T00:49:47.080Z,1373.4570
2023-03-12T00:49:58.131Z,1370.6370
2023-03-12T00:50:09.188Z,1358.0870
2023-03-12T00:50:20.251Z,1374.8710
2023-03-12T00:50:31.322Z,1365.0310
2023-03-12T00:50:42.403Z,1374.8710
2023-03-12T00:50:53.458Z,1376.2889
2023-03-12T00:51:04.552Z,1367.8280
2023-03-12T00:51:15.610Z,1358.0870
2023-03-12T00:51:26.662Z,1366.4280
2023-03-12T00:51:37.714Z,1372.0450
2023-03-12T00:51:48.800Z,1367.8280
2023-03-12T00:51:59.878Z,1370.6370
2023-03-12T00:52:10.950Z,1363.6360
2023-03-12T00:52:22.010Z,1362.2450
2023-03-12T00:52:33.081Z,1373.4570
2023-03-12T00:52:44.125Z,1365.0310
2023-03-12T00:52:55.163Z,1372.0450
2023-03-12T00:53:06.202Z,1376.2889
2023-03-12T00:53:17.293Z,1359.4700
2023-03-12T00:53:28.408Z,1359.4700
2023-03-12T00:53:39.453Z,1367.8280
2023-03-12T00:53:50.505Z,1359.4700
2023-03-12T00:54:01.521Z,1363.6360
2023-03-12T00:54:12.584Z,1360.8560
2023-03-12T00:54:23.641Z,1370.6370
2023-03-12T00:54:34.696Z,1359.4700
2023-03-12T00:54:45.760Z,1365.0310
2023-03-12T00:54:56.837Z,1367.8280
2023-03-12T00:55:07.890Z,1370.6370
2023-03-12T00:55:18.949Z,1363.6360
2023-03-12T00:55:30.025Z,1359.4700
2023-03-12T00:55:41.093Z,1369.2310
2023-03-12T00:55:52.166Z,1370.6370
2023-03-12T00:56:03.219Z,1362.2450
2023-03-12T00:56:14.286Z,1367.8280
2023-03-12T00:56:25.340Z,1372.0450
2023-03-12T00:56:36.417Z,1373.4570
2023-03-12T00:56:47.481Z,1370.6370
2023-03-12T00:56:58.545Z,1367.8280
2023-03-12T00:57:09.656Z,1365.0310
2023-03-12T00:57:20.660Z,1360.8560
2023-03-12T00:57:31.722Z,1365.0310
2023-03-12T00:57:42.785Z,1362.2450
2023-03-12T00:57:53.867Z,1363.6360
2023-03-12T00:58:04.952Z,1373.4570
2023-03-12T00:58:16.025Z,1367.8280
2023-03-12T00:58:27.067Z,1365.0310
2023-03-12T00:58:38.191Z,1373.4570
2023-03-12T00:58:49.216Z,1360.8560
2023-03-12T00:59:00.305Z,1374.8710
2023-03-12T00:59:11.382Z,1369.2310
2023-03-12T00:59:22.430Z,1373.4570
2023-03-12T00:59:33.510Z,1359.4700
2023-03-12T00:59:44.583Z,1365.0310
2023-03-12T00:59:55.619Z,1367.8280
2023-03-12T01:00:06.684Z,1370.6370
2023-03-12T01:00:17.740Z,1359.4700
2023-03-12T01:00:28.851Z,1373.4570
2023-03-12T01:00:39.923Z,1372.0450
2023-03-12T01:00:51.039Z,1359.4700
2023-03-12T01:01:02.244Z,1369.2310
2023-03-12T01:01:13.312Z,1365.0310
2023-03-12T01:01:24.425Z,1362.2450
2023-03-12T01:01:35.493Z,1359.4700
2023-03-12T01:01:46.558Z,1363.6360
2023-03-12T01:01:57.651Z,1359.4700
2023-03-12T01:02:08.678Z,1362.2450
2023-03-12T01:02:19.720Z,1362.2450
2023-03-12T01:02:30.805Z,1362.2450
2023-03-12T01:02:41.860Z,1365.0310
2023-03-12T01:02:52.956Z,1367.8280
2023-03-12T01:03:04.017Z,1372.0450
2023-03-12T01:03:15.080Z,1370.6370
2023-03-12T01:03:26.146Z,1359.4700
2023-03-12T01:03:37.292Z,1359.4700
2023-03-12T01:03:48.430Z,1359.4700
2023-03-12T01:03:59.508Z,1360.8560
2023-03-12T01:04:10.628Z,1363.6360
2023-03-12T01:04:21.761Z,1360.8560
2023-03-12T01:04:32.837Z,1359.4700
2023-03-12T01:04:43.886Z,1358.0870
2023-03-12T01:04:55.001Z,1362.2450
2023-03-12T01:05:06.041Z,1366.4280
2023-03-12T01:05:17.102Z,1369.2310
2023-03-12T01:05:28.173Z,1367.8280
2023-03-12T01:05:39.250Z,1370.6370
2023-03-12T01:05:50.312Z,1363.6360
2023-03-12T01:06:01.392Z,1372.0450
2023-03-12T01:06:12.422Z,1365.0310
2023-03-12T01:06:23.502Z,1367.8280
2023-03-12T01:06:34.567Z,1365.0310
2023-03-12T01:06:45.644Z,1365.0310
2023-03-12T01:06:56.700Z,1377.7090
2023-03-12T01:07:07.774Z,1366.4280
2023-03-12T01:07:18.841Z,1363.6360
2023-03-12T01:07:29.901Z,1359.4700
2023-03-12T01:07:40.969Z,1367.8280
2023-03-12T01:07:52.038Z,1362.2450
2023-03-12T01:08:03.081Z,1379.1320
2023-03-12T01:08:14.138Z,1362.2450
2023-03-12T01:08:25.214Z,1372.0450
2023-03-12T01:08:36.265Z,1365.0310
2023-03-12T01:08:47.325Z,1363.6360
2023-03-12T01:08:58.420Z,1365.0310
2023-03-12T01:09:09.494Z,1365.0310
2023-03-12T01:09:20.532Z,1372.0450
2023-03-12T01:09:31.593Z,1366.4280
2023-03-12T01:09:42.672Z,1369.2310
2023-03-12T01:09:53.720Z,1376.2889
2023-03-12T01:10:04.831Z,1365.0310
2023-03-12T01:10:15.875Z,1376.2889
2023-03-12T01:10:26.915Z,1370.6370
2023-03-12T01:10:37.992Z,1365.0310
2023-03-12T01:10:49.051Z,1366.4280
2023-03-12T01:11:00.209Z,1379.1320
2023-03-12T01:11:11.271Z,1379.1320
2023-03-12T01:11:22.361Z,1367.8280
2023-03-12T01:11:33.404Z,1376.2889
2023-03-12T01:11:44.446Z,1373.4570
2023-03-12T01:11:55.520Z,1370.6370
2023-03-12T01:12:06.605Z,1370.6370
2023-03-12T01:12:17.670Z,1367.8280
2023-03-12T01:12:28.704Z,1381.9880
2023-03-12T01:12:39.766Z,1373.4570
2023-03-12T01:12:50.838Z,1363.6360
2023-03-12T01:13:01.886Z,1376.2889
2023-03-12T01:13:12.945Z,1366.4280
2023-03-12T01:13:24.016Z,1365.0310
2023-03-12T01:13:35.081Z,1373.4570
2023-03-12T01:13:46.121Z,1369.2310
2023-03-12T01:13:57.194Z,1367.8280
2023-03-12T01:14:08.261Z,1373.4570
2023-03-12T01:14:19.339Z,1373.4570
2023-03-12T01:14:30.380Z,1377.7090
2023-03-12T01:14:41.398Z,1374.8710
2023-03-12T01:14:52.479Z,1367.8280
2023-03-12T01:15:03.553Z,1369.2310
2023-03-12T01:15:14.596Z,1369.2310
2023-03-12T01:15:25.651Z,1370.6370
2023-03-12T01:15:36.697Z,1362.2450
2023-03-12T01:15:47.778Z,1367.8280
2023-03-12T01:15:58.918Z,1381.9880
2023-03-12T01:16:10.060Z,1369.2310
2023-03-12T01:16:21.130Z,1372.0450
2023-03-12T01:16:32.311Z,1370.6370
2023-03-12T01:16:43.405Z,1377.7090
2023-03-12T01:16:54.464Z,1370.6370
2023-03-12T01:17:05.516Z,1374.8710
2023-03-12T01:17:16.579Z,1379.1320
2023-03-12T01:17:27.616Z,1376.2889
2023-03-12T01:17:38.673Z,1376.2889
2023-03-12T01:17:49.744Z,1365.0310
2023-03-12T01:18:00.817Z,1367.8280
2023-03-12T01:18:11.887Z,1369.2310
2023-03-12T01:18:22.945Z,1367.8280
2023-03-12T01:18:34.013Z,1367.8280
2023-03-12T01:18:45.062Z,1369.2310
2023-03-12T01:18:56.129Z,1369.2310
2023-03-12T01:19:07.236Z,1372.0450
2023-03-12T01:19:18.337Z,1373.4570
2023-03-12T01:19:29.376Z,1376.2889
2023-03-12T01:19:40.428Z,1377.7090
2023-03-12T01:19:51.465Z,1370.6370
2023-03-12T01:20:02.529Z,1374.8710
2023-03-12T01:20:13.560Z,1370.6370
2023-03-12T01:20:24.635Z,1369.2310
2023-03-12T01:20:35.782Z,1379.1320
2023-03-12T01:20:46.853Z,1379.1320
2023-03-12T01:20:57.915Z,1372.0450
2023-03-12T01:21:08.985Z,1372.0450
2023-03-12T01:21:20.032Z,1379.1320
2023-03-12T01:21:31.100Z,1367.8280
2023-03-12T01:21:42.144Z,1376.2889
2023-03-12T01:21:53.223Z,1373.4570
2023-03-12T01:22:04.337Z,1380.5580
2023-03-12T01:22:15.374Z,1370.6370
2023-03-12T01:22:26.441Z,1379.1320
2023-03-12T01:22:37.513Z,1374.8710
2023-03-12T01:22:48.581Z,1381.9880
2023-03-12T01:22:59.633Z,1373.4570
2023-03-12T01:23:10.686Z,1370.6370
2023-03-12T01:23:21.771Z,1379.1320
2023-03-12T01:23:32.834Z,1379.1320
2023-03-12T01:23:43.877Z,1373.4570
2023-03-12T01:23:54.929Z,1383.4200
2023-03-12T01:24:05.989Z,1376.2889
2023-03-12T01:24:17.056Z,1379.1320
2023-03-12T01:24:28.151Z,1367.8280
2023-03-12T01:24:39.205Z,1370.6370
2023-03-12T01:24:50.244Z,1379.1320
2023-03-12T01:25:01.321Z,1376.2889
2023-03-12T01:25:12.393Z,1377.7090
2023-03-12T01:25:23.464Z,1381.9880
2023-03-12T01:25:34.547Z,1373.4570
2023-03-12T01:25:45.601Z,1376.2889
2023-03-12T01:25:56.633Z,1379.1320
2023-03-12T01:26:07.688Z,1373.4570
2023-03-12T01:26:18.771Z,1370.6370
2023-03-12T01:26:29.811Z,1370.6370
2023-03-12T01:26:40.854Z,1379.1320
2023-03-12T01:26:51.916Z,1381.9880
2023-03-12T01:27:02.958Z,1373.4570
2023-03-12T01:27:14.033Z,1381.9880
2023-03-12T01:27:25.105Z,1379.1320
2023-03-12T01:27:36.168Z,1372.0450
2023-03-12T01:27:47.233Z,1376.2889
2023-03-12T01:27:58.277Z,1379.1320
2023-03-12T01:28:09.346Z,1370.6370
2023-03-12T01:28:20.385Z,1384.8550
2023-03-12T01:28:31.454Z,1376.2889
2023-03-12T01:28:42.523Z,1370.6370
2023-03-12T01:28:53.596Z,1373.4570
2023-03-12T01:29:04.650Z,1379.1320
2023-03-12T01:29:15.723Z,1381.9880
2023-03-12T01:29:26.794Z,1374.8710
2023-03-12T01:29:37.903Z,1370.6370
2023-03-12T01:29:48.980Z,1374.8710
2023-03-12T01:30:00.037Z,1381.9880
2023-03-12T01:30:11.078Z,1376.2889
2023-03-12T01:30:22.149Z,1374.8710
2023-03-12T01:30:33.198Z,1379.1320
2023-03-12T01:30:44.258Z,1373.4570
2023-03-12T01:30:55.324Z,1387.7340
2023-03-12T01:31:06.496Z,1376.2889
2023-03-12T01:31:17.603Z,1383.4200
2023-03-12T01:31:28.655Z,1380.5580
2023-03-12T01:31:39.777Z,1376.2889
2023-03-12T01:31:50.874Z,1379.1320
2023-03-12T01:32:01.929Z,1370.6370
2023-03-12T01:32:12.999Z,1380.5580
2023-03-12T01:32:24.134Z,1379.1320
2023-03-12T01:32:35.262Z,1373.4570
2023-03-12T01:32:46.381Z,1376.2889
2023-03-12T01:32:57.402Z,1376.2889
2023-03-12T01:33:08.466Z,1370.6370
2023-03-12T01:33:19.517Z,1373.4570
2023-03-12T01:33:30.574Z,1373.4570
2023-03-12T01:33:41.638Z,1374.8710
2023-03-12T01:33:52.709Z,1373.4570
2023-03-12T01:34:03.769Z,1380.5580
2023-03-12T01:34:14.820Z,1373.4570
2023-03-12T01:34:25.880Z,1387.7340
2023-03-12T01:34:36.918Z,1373.4570
2023-03-12T01:34:48.043Z,1373.4570
2023-03-12T01:34:59.083Z,1383.4200
2023-03-12T01:35:10.248Z,1381.9880
2023-03-12T01:35:21.359Z,1386.2930
2023-03-12T01:35:32.550Z,1374.8710
2023-03-12T01:35:43.859Z,1376.2889
2023-03-12T01:35:55.195Z,1379.1320
2023-03-12T01:36:06.369Z,1384.8550
2023-03-12T01:36:17.451Z,1379.1320
2023-03-12T01:36:28.632Z,1376.2889
2023-03-12T01:36:39.708Z,1384.8550
2023-03-12T01:36:50.764Z,1369.2310
2023-03-12T01:37:01.839Z,1379.1320
2023-03-12T01:37:12.906Z,1370.6370
2023-03-12T01:37:23.967Z,1376.2889
2023-03-12T01:37:35.024Z,1380.5580
2023-03-12T01:37:46.067Z,1374.8710
2023-03-12T01:37:57.134Z,1379.1320
2023-03-12T01:38:08.200Z,1367.8280
2023-03-12T01:38:19.265Z,1376.2889
2023-03-12T01:38:30.347Z,1373.4570
2023-03-12T01:38:41.421Z,1379.1320
2023-03-12T01:38:52.492Z,1387.7340
2023-03-12T01:39:03.562Z,1376.2889
2023-03-12T01:39:14.629Z,1381.9880
2023-03-12T01:39:25.699Z,1374.8710
2023-03-12T01:39:36.761Z,1380.5580
2023-03-12T01:39:47.810Z,1376.2889
2023-03-12T01:39:58.914Z,1373.4570
2023-03-12T01:40:09.970Z,1384.8550
2023-03-12T01:40:21.033Z,1374.8710
2023-03-12T01:40:32.104Z,1374.8710
2023-03-12T01:40:43.193Z,1384.8550
2023-03-12T01:40:54.251Z,1369.2310
2023-03-12T01:41:05.304Z,1381.9880
2023-03-12T01:41:16.360Z,1376.2889
2023-03-12T01:41:27.448Z,1379.1320
2023-03-12T01:41:38.479Z,1376.2889
2023-03-12T01:41:49.560Z,1374.8710
2023-03-12T01:42:00.633Z,1387.7340
2023-03-12T01:42:11.715Z,1379.1320
2023-03-12T01:42:22.784Z,1384.8550
2023-03-12T01:42:33.855Z,1381.9880
2023-03-12T01:42:44.904Z,1384.8550
2023-03-12T01:42:55.971Z,1387.7340
2023-03-12T01:43:07.044Z,1379.1320
2023-03-12T01:43:18.103Z,1376.2889
2023-03-12T01:43:29.142Z,1380.5580
2023-03-12T01:43:40.215Z,1381.9880
2023-03-12T01:43:51.223Z,1376.2889
2023-03-12T01:44:02.330Z,1386.2930
2023-03-12T01:44:13.376Z,1376.2889
2023-03-12T01:44:24.421Z,1376.2889
2023-03-12T01:44:35.473Z,1381.9880
2023-03-12T01:44:46.512Z,1387.7340
2023-03-12T01:44:57.597Z,1376.2889
2023-03-12T01:45:08.691Z,1376.2889
2023-03-12T01:45:19.754Z,1390.6250
2023-03-12T01:45:30.836Z,1384.8550
2023-03-12T01:45:41.901Z,1383.4200
2023-03-12T01:45:53.004Z,1380.5580
2023-03-12T01:46:04.083Z,1379.1320
2023-03-12T01:46:15.156Z,1386.2930
2023-03-12T01:46:26.210Z,1380.5580
2023-03-12T01:46:37.271Z,1380.5580
2023-03-12T01:46:48.289Z,1381.9880
2023-03-12T01:46:59.350Z,1390.6250
2023-03-12T01:47:10.400Z,1387.7340
2023-03-12T01:47:21.427Z,1381.9880
2023-03-12T01:47:32.501Z,1379.1320
2023-03-12T01:47:43.554Z,1384.8550
2023-03-12T01:47:54.626Z,1377.7090
2023-03-12T01:48:05.630Z,1379.1320
2023-03-12T01:48:16.694Z,1381.9880
2023-03-12T01:48:27.751Z,1381.9880
2023-03-12T01:48:38.837Z,1383.4200
2023-03-12T01:48:49.912Z,1383.4200
2023-03-12T01:49:00.956Z,1380.5580
2023-03-12T01:49:12.015Z,1381.9880
2023-03-12T01:49:23.084Z,1386.2930
2023-03-12T01:49:34.137Z,1379.1320
2023-03-12T01:49:45.211Z,1380.5580
2023-03-12T01:49:56.288Z,1379.1320
2023-03-12T01:50:07.368Z,1381.9880
2023-03-12T01:50:18.497Z,1380.5580
2023-03-12T01:50:29.529Z,1380.5580
2023-03-12T01:50:40.570Z,1393.5280
2023-03-12T01:50:51.670Z,1384.8550
2023-03-12T01:51:02.755Z,1383.4200
2023-03-12T01:51:13.794Z,1387.7340
2023-03-12T01:51:24.870Z,1387.7340
2023-03-12T01:51:35.913Z,1381.9880
2023-03-12T01:51:46.994Z,1377.7090
2023-03-12T01:51:58.079Z,1389.1780
2023-03-12T01:52:09.121Z,1381.9880
2023-03-12T01:52:20.183Z,1383.4200
2023-03-12T01:52:31.232Z,1381.9880
2023-03-12T01:52:42.308Z,1379.1320
2023-03-12T01:52:53.377Z,1381.9880
2023-03-12T01:53:04.460Z,1376.2889
2023-03-12T01:53:15.520Z,1389.1780
2023-03-12T01:53:26.583Z,1376.2889
2023-03-12T01:53:37.650Z,1379.1320
2023-03-12T01:53:48.736Z,1384.8550
2023-03-12T01:53:59.792Z,1379.1320
2023-03-12T01:54:10.824Z,1380.5580
2023-03-12T01:54:21.856Z,1387.7340
2023-03-12T01:54:32.923Z,1393.5280
2023-03-12T01:54:43.982Z,1387.7340
2023-03-12T01:54:55.038Z,1387.7340
2023-03-12T01:55:06.125Z,1377.7090
2023-03-12T01:55:17.198Z,1377.7090
2023-03-12T01:55:28.274Z,1384.8550
2023-03-12T01:55:39.307Z,1383.4200
2023-03-12T01:55:50.389Z,1383.4200
2023-03-12T01:56:01.460Z,1377.7090
2023-03-12T01:56:12.497Z,1379.1320
2023-03-12T01:56:23.565Z,1381.9880
2023-03-12T01:56:34.627Z,1381.9880
2023-03-12T01:56:45.678Z,1381.9880
2023-03-12T01:56:56.752Z,1379.1320
2023-03-12T01:57:07.835Z,1389.1780
2023-03-12T01:57:18.925Z,1392.0750
2023-03-12T01:57:29.996Z,1377.7090
2023-03-12T01:57:41.051Z,1377.7090
2023-03-12T01:57:52.122Z,1381.9880
2023-03-12T01:58:03.168Z,1380.5580
2023-03-12T01:58:14.244Z,1386.2930
2023-03-12T01:58:25.288Z,1390.6250
2023-03-12T01:58:36.356Z,1379.1320
2023-03-12T01:58:47.438Z,1381.9880
2023-03-12T01:58:58.497Z,1379.1320
2023-03-12T01:59:09.539Z,1387.7340
2023-03-12T01:59:20.580Z,1389.1780
2023-03-12T01:59:31.645Z,1376.2889
2023-03-12T01:59:42.693Z,1386.2930
2023-03-12T01:59:53.774Z,1386.2930
2023-03-12T02:00:04.822Z,1389.1780
2023-03-12T02:00:15.876Z,1384.8550
2023-03-12T02:00:26.940Z,1376.2889
2023-03-12T02:00:38.048Z,1394.9840
2023-03-12T02:00:49.148Z,1381.9880
2023-03-12T02:01:00.280Z,1386.2930
2023-03-12T02:01:11.344Z,1384.8550
2023-03-12T02:01:22.460Z,1379.1320
2023-03-12T02:01:33.656Z,1381.9880
2023-03-12T02:01:44.722Z,1376.2889
2023-03-12T02:01:55.794Z,1381.9880
2023-03-12T02:02:06.884Z,1381.9880
2023-03-12T02:02:17.958Z,1387.7340
2023-03-12T02:02:29.006Z,1377.7090
2023-03-12T02:02:40.068Z,1379.1320
2023-03-12T02:02:51.144Z,1379.1320
2023-03-12T02:03:02.231Z,1380.5580
2023-03-12T02:03:13.288Z,1380.5580
2023-03-12T02:03:24.370Z,1379.1320
2023-03-12T02:03:35.495Z,1379.1320
2023-03-12T02:03:46.613Z,1376.2889
2023-03-12T02:03:57.752Z,1392.0750
2023-03-12T02:04:08.895Z,1384.8550
2023-03-12T02:04:20.030Z,1387.7340
2023-03-12T02:04:31.171Z,1399.3710
2023-03-12T02:04:42.369Z,1381.9880
2023-03-12T02:04:53.426Z,1393.5280
2023-03-12T02:05:04.509Z,1377.7090
2023-03-12T02:05:15.574Z,1381.9880
2023-03-12T02:05:26.668Z,1394.9840
2023-03-12T02:05:37.692Z,1393.5280
2023-03-12T02:05:48.777Z,1379.1320
2023-03-12T02:05:59.840Z,1384.8550
2023-03-12T02:06:10.904Z,1383.4200
2023-03-12T02:06:21.961Z,1377.7090
2023-03-12T02:06:33.021Z,1384.8550